createdAt,value
2022-10-25T00:01:22.095Z,17.47
2022-10-25T00:03:50.172Z,17.44
2022-10-25T00:06:18.150Z,17.44
2022-10-25T00:08:46.128Z,17.49
2022-10-25T00:11:19.158Z,17.46
2022-10-25T00:13:47.051Z,17.43
2022-10-25T00:16:16.464Z,17.35
2022-10-25T00:18:45.653Z,17.42
2022-10-25T00:21:13.585Z,17.43
2022-10-25T00:23:41.412Z,17.40
2022-10-25T00:26:11.189Z,17.39
2022-10-25T00:28:39.454Z,17.34
2022-10-25T00:31:10.716Z,17.26
2022-10-25T00:33:40.359Z,17.27
2022-10-25T00:36:11.933Z,17.12
2022-10-25T00:38:39.857Z,17.23
2022-10-25T00:41:08.698Z,17.37
2022-10-25T00:43:39.282Z,17.32
2022-10-25T00:46:12.078Z,17.13
2022-10-25T00:48:40.027Z,17.32
2022-10-25T00:51:10.250Z,17.23
2022-10-25T00:53:39.149Z,17.30
2022-10-25T00:56:14.348Z,17.13
2022-10-25T00:58:45.033Z,17.11
2022-10-25T01:01:14.489Z,17.07
2022-10-25T01:03:46.052Z,17.12
2022-10-25T01:06:19.846Z,17.08
2022-10-25T01:08:49.459Z,16.93
2022-10-25T01:13:51.143Z,17.08
2022-10-25T01:16:28.953Z,17.18
2022-10-25T01:19:07.666Z,17.25
2022-10-25T01:21:46.399Z,17.23
2022-10-25T01:25:04.179Z,17.26
2022-10-25T01:27:53.473Z,17.30
2022-10-25T01:30:23.101Z,17.31
2022-10-25T01:33:04.625Z,17.29
2022-10-25T01:35:36.850Z,17.45
2022-10-25T01:38:21.418Z,17.51
2022-10-25T01:40:54.202Z,17.28
2022-10-25T01:43:30.901Z,17.45
2022-10-25T01:46:04.944Z,17.46
2022-10-25T01:48:37.796Z,17.43
2022-10-25T01:51:10.067Z,17.26
2022-10-25T01:53:49.427Z,17.49
2022-10-25T01:56:24.759Z,17.59
2022-10-25T01:59:22.155Z,17.49
2022-10-25T02:02:02.043Z,17.51
2022-10-25T02:04:41.636Z,17.46
2022-10-25T02:07:12.835Z,17.49
2022-10-25T02:09:50.253Z,17.17
2022-10-25T02:12:26.113Z,17.45
2022-10-25T02:15:03.857Z,17.50
2022-10-25T02:17:35.363Z,17.58
2022-10-25T02:20:08.617Z,17.49
2022-10-25T02:22:38.677Z,17.70
2022-10-25T02:25:09.394Z,17.58
2022-10-25T02:27:39.966Z,17.52
2022-10-25T02:30:09.409Z,17.56
2022-10-25T02:32:37.269Z,17.59
2022-10-25T02:37:41.149Z,17.70
2022-10-25T02:40:11.007Z,17.58
2022-10-25T02:42:38.823Z,17.60
2022-10-25T02:45:07.862Z,17.75
2022-10-25T02:47:35.736Z,17.86
2022-10-25T02:50:04.285Z,17.62
2022-10-25T02:52:33.508Z,17.59
2022-10-25T02:55:01.371Z,17.55
2022-10-25T02:57:33.773Z,17.58
2022-10-25T03:00:01.832Z,17.37
2022-10-25T03:02:29.782Z,17.58
2022-10-25T03:04:57.586Z,17.56
2022-10-25T03:07:25.741Z,17.37
2022-10-25T03:09:54.944Z,17.49
2022-10-25T03:12:22.778Z,17.65
2022-10-25T03:14:50.661Z,17.50
2022-10-25T03:17:18.541Z,17.38
2022-10-25T03:19:46.361Z,17.50
2022-10-25T03:22:14.200Z,17.43
2022-10-25T03:24:42.058Z,17.36
2022-10-25T03:27:11.243Z,17.28
2022-10-25T03:29:39.131Z,17.45
2022-10-25T03:32:07.786Z,17.59
2022-10-25T03:34:35.652Z,17.61
2022-10-25T03:37:03.489Z,17.33
2022-10-25T03:39:31.326Z,17.54
2022-10-25T03:41:59.143Z,17.43
2022-10-25T03:44:28.436Z,17.22
2022-10-25T03:46:56.277Z,17.43
2022-10-25T03:49:24.205Z,17.52
2022-10-25T03:51:53.963Z,17.64
2022-10-25T03:54:29.131Z,17.57
2022-10-25T03:56:57.334Z,17.55
2022-10-25T03:59:25.164Z,17.49
2022-10-25T04:01:54.778Z,17.54
2022-10-25T04:04:22.858Z,17.30
2022-10-25T04:06:50.666Z,17.56
2022-10-25T04:09:18.631Z,17.47
2022-10-25T04:11:46.469Z,17.43
2022-10-25T04:14:14.529Z,17.49
2022-10-25T04:16:42.381Z,17.37
2022-10-25T04:19:11.632Z,17.16
2022-10-25T04:21:39.504Z,17.35
2022-10-25T04:24:07.672Z,17.17
2022-10-25T04:26:36.854Z,17.32
2022-10-25T04:29:05.959Z,17.08
2022-10-25T04:31:34.345Z,17.27
2022-10-25T04:34:02.202Z,16.98
2022-10-25T04:36:32.003Z,17.11
2022-10-25T04:38:59.982Z,17.18
2022-10-25T04:41:27.959Z,17.33
2022-10-25T04:43:55.812Z,17.13
2022-10-25T04:46:23.908Z,17.19
2022-10-25T04:48:51.746Z,17.30
2022-10-25T04:51:19.701Z,17.21
2022-10-25T04:53:48.851Z,17.20
2022-10-25T04:56:16.659Z,17.24
2022-10-25T04:58:44.501Z,17.19
2022-10-25T05:01:14.787Z,17.07
2022-10-25T05:03:42.905Z,17.22
2022-10-25T05:06:12.732Z,17.05
2022-10-25T05:08:41.855Z,17.11
2022-10-25T05:11:12.568Z,16.87
2022-10-25T05:13:42.121Z,16.94
2022-10-25T05:16:14.480Z,16.87
2022-10-25T05:18:45.540Z,16.86
2022-10-25T05:21:14.580Z,16.86
2022-10-25T05:23:42.975Z,16.74
2022-10-25T05:26:14.332Z,16.84
2022-10-25T05:28:44.174Z,17.01
2022-10-25T05:31:15.235Z,16.93
2022-10-25T05:33:44.984Z,16.76
2022-10-25T05:36:13.430Z,16.77
2022-10-25T05:38:42.008Z,16.85
2022-10-25T05:41:16.743Z,16.84
2022-10-25T05:43:45.566Z,16.96
2022-10-25T05:46:15.772Z,16.80
2022-10-25T05:48:48.354Z,16.81
2022-10-25T05:51:33.729Z,16.79
2022-10-25T05:54:04.199Z,16.85
2022-10-25T05:56:34.288Z,17.01
2022-10-25T05:59:07.604Z,17.05
2022-10-25T06:01:35.873Z,16.60
2022-10-25T06:04:03.783Z,16.81
2022-10-25T06:06:31.747Z,16.91
2022-10-25T06:09:00.311Z,17.05
2022-10-25T06:11:29.615Z,17.04
2022-10-25T06:13:58.861Z,17.16
2022-10-25T06:16:26.892Z,17.01
2022-10-25T06:18:54.958Z,17.11
2022-10-25T06:21:24.804Z,17.19
2022-10-25T06:23:53.644Z,17.20
2022-10-25T06:26:24.841Z,17.23
2022-10-25T06:28:55.452Z,17.06
2022-10-25T06:31:25.067Z,17.11
2022-10-25T06:33:53.079Z,17.06
2022-10-25T06:36:22.374Z,16.92
2022-10-25T06:38:50.979Z,16.63
2022-10-25T06:41:20.789Z,17.04
2022-10-25T06:43:48.892Z,17.29
2022-10-25T06:46:22.403Z,17.24
2022-10-25T06:48:53.200Z,17.31
2022-10-25T06:51:21.934Z,17.53
2022-10-25T06:53:55.262Z,17.33
2022-10-25T06:56:23.692Z,17.63
2022-10-25T06:58:51.834Z,17.41
2022-10-25T07:05:28.185Z,17.64
2022-10-25T07:07:56.005Z,17.67
2022-10-25T07:10:23.843Z,17.76
2022-10-25T07:12:51.640Z,17.65
2022-10-25T07:17:55.960Z,17.58
2022-10-25T07:20:23.779Z,17.67
2022-10-25T07:22:55.524Z,17.66
2022-10-25T07:25:26.986Z,17.53
2022-10-25T07:27:54.848Z,17.63
2022-10-25T07:30:22.686Z,17.66
2022-10-25T07:32:50.854Z,17.28
2022-10-25T07:35:18.703Z,17.39
2022-10-25T07:37:46.781Z,17.64
2022-10-25T07:40:16.359Z,17.56
2022-10-25T07:42:44.183Z,17.62
2022-10-25T07:45:12.235Z,17.56
2022-10-25T07:47:40.042Z,17.64
2022-10-25T07:50:08.404Z,17.77
2022-10-25T07:52:36.205Z,18.20
2022-10-25T07:55:04.072Z,17.97
2022-10-25T07:57:33.259Z,18.04
2022-10-25T08:00:01.121Z,17.81
2022-10-25T08:02:29.021Z,17.73
2022-10-25T08:04:56.908Z,17.61
2022-10-25T08:07:24.869Z,17.60
2022-10-25T08:09:52.729Z,17.56
2022-10-25T08:12:22.612Z,17.57
2022-10-25T08:14:51.995Z,17.53
2022-10-25T08:17:19.914Z,17.53
2022-10-25T08:19:51.229Z,17.68
2022-10-25T08:22:19.497Z,17.65
2022-10-25T08:24:47.411Z,17.48
2022-10-25T08:27:15.467Z,17.58
2022-10-25T08:29:43.593Z,17.55
2022-10-25T08:32:12.864Z,17.69
2022-10-25T08:34:41.086Z,17.47
2022-10-25T08:37:11.751Z,17.66
2022-10-25T08:39:39.722Z,17.69
2022-10-25T08:42:07.669Z,17.50
2022-10-25T08:44:46.707Z,17.66
2022-10-25T08:47:19.927Z,17.85
2022-10-25T08:49:55.009Z,17.77
2022-10-25T08:52:28.446Z,17.68
2022-10-25T08:55:00.456Z,17.58
2022-10-25T08:57:34.574Z,17.89
2022-10-25T09:00:07.269Z,17.79
2022-10-25T09:02:41.018Z,17.60
2022-10-25T09:05:17.970Z,18.00
2022-10-25T09:08:03.189Z,17.98
2022-10-25T09:10:45.071Z,17.86
2022-10-25T09:13:27.250Z,17.96
2022-10-25T09:16:06.682Z,17.93
2022-10-25T09:18:44.747Z,18.18
2022-10-25T09:21:22.428Z,18.15
2022-10-25T09:24:00.234Z,18.54
2022-10-25T09:26:43.466Z,18.38
2022-10-25T09:29:18.939Z,18.26
2022-10-25T09:31:50.896Z,18.79
2022-10-25T09:34:22.648Z,18.60
2022-10-25T09:36:55.959Z,18.62
2022-10-25T09:39:27.412Z,18.65
2022-10-25T09:41:57.114Z,19.06
2022-10-25T09:44:33.925Z,19.25
2022-10-25T09:47:09.848Z,19.36
2022-10-25T09:49:45.954Z,19.43
2022-10-25T09:52:20.182Z,18.86
2022-10-25T09:54:53.610Z,19.27
2022-10-25T09:57:21.883Z,18.96
2022-10-25T09:59:52.518Z,18.88
2022-10-25T10:02:25.258Z,18.89
2022-10-25T10:04:55.440Z,18.70
2022-10-25T10:07:29.584Z,18.64
2022-10-25T10:10:00.283Z,18.61
2022-10-25T10:12:33.056Z,18.48
2022-10-25T10:15:05.923Z,18.74
2022-10-25T10:17:33.804Z,18.80
2022-10-25T10:20:14.057Z,19.06
2022-10-25T10:25:19.510Z,18.79
2022-10-25T10:27:50.103Z,18.86
2022-10-25T10:30:23.264Z,18.83
2022-10-25T10:32:57.380Z,18.75
2022-10-25T10:35:35.477Z,18.68
2022-10-25T10:38:22.276Z,18.68
2022-10-25T10:40:51.844Z,18.64
2022-10-25T10:43:41.414Z,18.79
2022-10-25T10:46:12.252Z,18.88
2022-10-25T10:48:43.366Z,18.89
2022-10-25T10:51:50.423Z,18.84
2022-10-25T10:54:29.691Z,18.87
2022-10-25T10:57:00.550Z,18.75
2022-10-25T10:59:39.377Z,19.09
2022-10-25T11:02:27.640Z,19.20
2022-10-25T11:04:57.081Z,19.24
2022-10-25T11:07:34.077Z,19.50
2022-10-25T11:10:24.034Z,19.31
2022-10-25T11:13:13.505Z,19.64
2022-10-25T11:16:11.868Z,19.91
2022-10-25T11:18:52.094Z,20.23
2022-10-25T11:21:35.630Z,20.09
2022-10-25T11:24:13.085Z,19.76
2022-10-25T11:26:52.034Z,19.87
2022-10-25T11:29:32.951Z,19.74
2022-10-25T11:32:14.561Z,19.60
2022-10-25T11:34:48.731Z,19.73
2022-10-25T11:37:22.120Z,19.74
2022-10-25T11:40:03.165Z,19.88
2022-10-25T11:42:55.850Z,19.91
2022-10-25T11:45:35.425Z,20.11
2022-10-25T11:48:28.113Z,20.16
2022-10-25T11:51:04.393Z,19.93
2022-10-25T11:53:59.602Z,20.14
2022-10-25T11:56:34.951Z,20.15
2022-10-25T11:59:16.165Z,20.16
2022-10-25T12:01:58.830Z,19.94
2022-10-25T12:04:43.350Z,20.03
2022-10-25T12:07:16.645Z,20.59
2022-10-25T12:09:50.792Z,20.64
2022-10-25T12:12:23.957Z,20.41
2022-10-25T12:14:56.133Z,20.77
2022-10-25T12:17:27.754Z,20.66
2022-10-25T12:19:58.222Z,21.06
2022-10-25T12:22:31.018Z,20.66
2022-10-25T12:25:02.642Z,20.53
2022-10-25T12:27:32.691Z,20.74
2022-10-25T12:30:05.344Z,21.00
2022-10-25T12:32:39.524Z,20.74
2022-10-25T12:35:20.495Z,20.79
2022-10-25T12:37:56.487Z,20.35
2022-10-25T12:40:28.642Z,20.41
2022-10-25T12:43:03.820Z,19.99
2022-10-25T12:45:46.235Z,20.20
2022-10-25T12:48:28.112Z,19.73
2022-10-25T12:51:22.727Z,19.77
2022-10-25T12:54:07.887Z,19.87
2022-10-25T12:56:46.295Z,19.78
2022-10-25T12:59:36.551Z,19.93
2022-10-25T13:02:19.530Z,19.81
2022-10-25T13:05:07.760Z,19.62
2022-10-25T13:07:38.293Z,19.99
2022-10-25T13:10:08.141Z,20.07
2022-10-25T13:12:36.109Z,20.05
2022-10-25T13:15:06.162Z,20.08
2022-10-25T13:18:07.481Z,19.95
2022-10-25T13:20:50.469Z,20.00
2022-10-25T13:23:58.499Z,19.95
2022-10-25T13:26:31.391Z,19.95
2022-10-25T13:29:01.899Z,19.96
2022-10-25T13:31:58.300Z,19.99
2022-10-25T13:34:36.890Z,19.51
2022-10-25T13:37:39.830Z,19.76
2022-10-25T13:40:19.516Z,19.36
2022-10-25T13:42:50.319Z,19.47
2022-10-25T13:45:30.031Z,19.36
2022-10-25T13:48:11.059Z,19.14
2022-10-25T13:50:45.304Z,19.27
2022-10-25T13:53:21.211Z,19.44
2022-10-25T13:55:58.718Z,19.43
2022-10-25T13:58:43.397Z,19.40
2022-10-25T14:01:56.732Z,19.12
2022-10-25T14:04:37.830Z,19.23
2022-10-25T14:07:43.464Z,19.33
2022-10-25T14:12:59.149Z,19.44
2022-10-25T14:15:38.567Z,19.10
2022-10-25T14:18:16.998Z,19.24
2022-10-25T14:20:50.091Z,19.31
2022-10-25T14:23:22.809Z,19.04
2022-10-25T14:25:54.124Z,19.34
2022-10-25T14:28:27.079Z,19.16
2022-10-25T14:30:57.852Z,19.23
2022-10-25T14:33:28.238Z,19.28
2022-10-25T14:36:07.680Z,19.20
2022-10-25T14:38:39.795Z,19.31
2022-10-25T14:41:13.775Z,18.88
2022-10-25T14:43:42.951Z,19.06
2022-10-25T14:46:14.654Z,18.99
2022-10-25T14:48:45.220Z,18.99
2022-10-25T14:51:19.789Z,19.12
2022-10-25T14:53:55.730Z,18.94
2022-10-25T14:56:29.479Z,18.91
2022-10-25T14:58:58.203Z,18.92
2022-10-25T15:01:26.878Z,18.73
2022-10-25T15:03:59.365Z,18.87
2022-10-25T15:06:32.178Z,18.70
2022-10-25T15:12:07.058Z,18.64
2022-10-25T15:14:35.424Z,18.67
2022-10-25T15:17:04.056Z,18.69
2022-10-25T15:19:31.959Z,18.56
2022-10-25T15:22:10.808Z,18.68
2022-10-25T15:24:47.059Z,18.71
2022-10-25T15:27:27.913Z,18.55
2022-10-25T15:29:56.003Z,18.42
2022-10-25T15:32:26.368Z,18.52
2022-10-25T15:34:56.293Z,18.37
2022-10-25T15:37:26.594Z,18.42
2022-10-25T15:39:56.043Z,18.34
2022-10-25T15:42:25.680Z,18.27
2022-10-25T15:44:53.665Z,18.32
2022-10-25T15:47:33.082Z,18.24
2022-10-25T15:50:03.474Z,18.00
2022-10-25T15:52:32.727Z,18.19
2022-10-25T15:55:00.584Z,18.11
2022-10-25T15:57:28.457Z,18.18
2022-10-25T15:59:56.357Z,18.11
2022-10-25T16:02:28.452Z,18.13
2022-10-25T16:04:56.459Z,18.11
2022-10-25T16:07:24.394Z,18.12
2022-10-25T16:09:53.641Z,18.11
2022-10-25T16:12:27.077Z,18.08
2022-10-25T16:14:55.135Z,18.01
2022-10-25T16:17:22.957Z,17.97
2022-10-25T16:19:50.965Z,17.98
2022-10-25T16:22:18.897Z,18.07
2022-10-25T16:24:46.812Z,18.03
2022-10-25T16:27:16.281Z,17.90
2022-10-25T16:29:44.199Z,17.76
2022-10-25T16:32:12.182Z,17.91
2022-10-25T16:34:42.533Z,17.72
2022-10-25T16:37:11.819Z,17.70
2022-10-25T16:39:40.046Z,17.83
2022-10-25T16:42:31.526Z,17.87
2022-10-25T16:45:00.255Z,17.84
2022-10-25T16:47:28.720Z,17.76
2022-10-25T16:49:56.565Z,17.74
2022-10-25T16:52:24.410Z,17.76
2022-10-25T16:54:52.305Z,17.83
2022-10-25T16:57:20.201Z,17.81
2022-10-25T16:59:50.560Z,17.84
2022-10-25T17:02:20.874Z,17.71
2022-10-25T17:04:49.506Z,17.63
2022-10-25T17:07:17.586Z,17.57
2022-10-25T17:09:45.414Z,17.63
2022-10-25T17:12:13.772Z,17.56
2022-10-25T17:14:41.853Z,17.62
2022-10-25T17:17:11.113Z,17.60
2022-10-25T17:19:38.967Z,17.49
2022-10-25T17:22:06.879Z,17.57
2022-10-25T17:24:37.537Z,17.65
2022-10-25T17:27:06.424Z,17.61
2022-10-25T17:29:34.414Z,17.45
2022-10-25T17:32:02.301Z,17.37
2022-10-25T17:34:32.335Z,17.29
2022-10-25T17:37:02.140Z,17.31
2022-10-25T17:39:30.314Z,17.29
2022-10-25T17:41:58.166Z,17.30
2022-10-25T17:44:28.443Z,17.27
2022-10-25T17:46:58.431Z,17.28
2022-10-25T17:49:28.699Z,17.24
2022-10-25T17:51:57.938Z,17.11
2022-10-25T17:54:25.772Z,17.14
2022-10-25T17:56:58.476Z,17.05
2022-10-25T17:59:27.698Z,17.05
2022-10-25T18:01:55.822Z,16.99
2022-10-25T18:04:24.498Z,17.06
2022-10-25T18:06:52.525Z,17.03
2022-10-25T18:09:21.945Z,16.80
2022-10-25T18:11:49.812Z,16.82
2022-10-25T18:14:17.662Z,16.93
2022-10-25T18:16:45.518Z,17.00
2022-10-25T18:19:15.325Z,17.00
2022-10-25T18:21:43.196Z,16.91
2022-10-25T18:24:13.244Z,16.84
2022-10-25T18:26:42.477Z,16.81
2022-10-25T18:29:10.943Z,16.84
2022-10-25T18:31:38.793Z,16.71
2022-10-25T18:34:06.690Z,16.60
2022-10-25T18:36:34.586Z,16.62
2022-10-25T18:39:02.474Z,16.60
2022-10-25T18:41:31.994Z,16.61
2022-10-25T18:44:02.393Z,16.67
2022-10-25T18:46:31.912Z,16.84
2022-10-25T18:49:00.187Z,16.73
2022-10-25T18:51:29.283Z,16.77
2022-10-25T18:53:58.549Z,16.64
2022-10-25T18:56:27.081Z,16.63
2022-10-25T18:58:56.697Z,16.49
2022-10-25T19:01:28.582Z,16.55
2022-10-25T19:03:57.494Z,16.60
2022-10-25T19:06:25.889Z,16.61
2022-10-25T19:08:54.214Z,16.53
2022-10-25T19:11:22.458Z,16.54
2022-10-25T19:13:54.496Z,16.54
2022-10-25T19:16:23.065Z,16.53
2022-10-25T19:18:52.628Z,16.53
2022-10-25T19:21:20.762Z,16.41
2022-10-25T19:23:49.379Z,16.41
2022-10-25T19:26:19.774Z,16.45
2022-10-25T19:28:47.988Z,16.38
2022-10-25T19:31:18.029Z,16.31
2022-10-25T19:33:49.508Z,16.21
2022-10-25T19:36:19.421Z,16.20
2022-10-25T19:38:48.352Z,16.11
2022-10-25T19:41:18.792Z,16.15
2022-10-25T19:43:47.053Z,16.16
2022-10-25T19:46:16.006Z,16.16
2022-10-25T19:48:43.912Z,16.13
2022-10-25T19:51:13.814Z,16.03
2022-10-25T19:53:43.360Z,16.01
2022-10-25T19:56:13.658Z,15.97
2022-10-25T19:58:44.691Z,15.89
2022-10-25T20:01:15.437Z,15.81
2022-10-25T20:03:44.228Z,15.82
2022-10-25T20:06:17.516Z,15.84
2022-10-25T20:08:49.830Z,15.82
2022-10-25T20:11:19.013Z,15.86
2022-10-25T20:13:47.034Z,15.77
2022-10-25T20:16:15.452Z,15.79
2022-10-25T20:18:43.901Z,15.78
2022-10-25T20:21:14.040Z,15.87
2022-10-25T20:23:44.438Z,15.75
2022-10-25T20:26:15.710Z,15.77
2022-10-25T20:28:45.248Z,15.55
2022-10-25T20:31:13.572Z,15.65
2022-10-25T20:33:41.872Z,15.61
2022-10-25T20:36:12.939Z,15.60
2022-10-25T20:38:41.507Z,15.61
2022-10-25T20:41:11.433Z,15.50
2022-10-25T20:43:41.156Z,15.62
2022-10-25T20:46:09.386Z,15.51
2022-10-25T20:48:37.608Z,15.42
2022-10-25T20:51:07.802Z,15.52
2022-10-25T20:53:36.987Z,15.57
2022-10-25T20:56:05.352Z,15.55
2022-10-25T20:58:34.572Z,15.49
2022-10-25T21:01:03.950Z,15.39
2022-10-25T21:03:33.084Z,15.48
2022-10-25T21:06:03.385Z,15.51
2022-10-25T21:08:32.006Z,15.41
2022-10-25T21:11:01.396Z,15.31
2022-10-25T21:13:32.221Z,15.35
2022-10-25T21:16:00.468Z,15.39
2022-10-25T21:18:30.320Z,15.37
2022-10-25T21:21:02.024Z,15.39
2022-10-25T21:23:31.079Z,15.26
2022-10-25T21:25:59.694Z,15.33
2022-10-25T21:28:28.083Z,15.29
2022-10-25T21:30:55.861Z,15.26
2022-10-25T21:33:23.740Z,15.13
2022-10-25T21:35:52.962Z,15.08
2022-10-25T21:38:21.011Z,15.09
2022-10-25T21:40:48.863Z,15.13
2022-10-25T21:43:16.671Z,15.11
2022-10-25T21:45:44.467Z,15.02
2022-10-25T21:48:12.255Z,15.05
2022-10-25T21:50:40.083Z,14.98
2022-10-25T21:53:09.288Z,15.05
2022-10-25T21:55:37.082Z,15.01
2022-10-25T21:58:04.862Z,15.03
2022-10-25T22:00:32.707Z,15.02
2022-10-25T22:03:00.483Z,14.97
2022-10-25T22:05:28.275Z,14.91
2022-10-25T22:07:56.138Z,14.95
2022-10-25T22:10:25.413Z,14.94
2022-10-25T22:12:54.940Z,14.92
2022-10-25T22:15:22.767Z,14.86
2022-10-25T22:17:50.647Z,14.84
2022-10-25T22:20:18.499Z,14.81
2022-10-25T22:22:46.660Z,14.85
2022-10-25T22:25:14.967Z,14.73
2022-10-25T22:27:46.641Z,14.69
2022-10-25T22:30:14.813Z,14.77
2022-10-25T22:32:42.638Z,14.79
2022-10-25T22:35:10.838Z,14.73
2022-10-25T22:37:38.685Z,14.75
2022-10-25T22:40:07.746Z,14.77
2022-10-25T22:42:35.756Z,14.69
2022-10-25T22:45:05.516Z,14.66
2022-10-25T22:47:33.581Z,14.71
2022-10-25T22:50:01.467Z,14.68
2022-10-25T22:52:29.268Z,14.63
2022-10-25T22:54:57.096Z,14.58
2022-10-25T22:57:25.026Z,14.63
2022-10-25T22:59:52.842Z,14.60
2022-10-25T23:02:22.056Z,14.63
2022-10-25T23:04:49.914Z,14.60
2022-10-25T23:07:17.917Z,14.60
2022-10-25T23:09:45.818Z,14.55
2022-10-25T23:12:13.634Z,14.54
2022-10-25T23:14:41.500Z,14.64
2022-10-25T23:17:09.359Z,14.58
2022-10-25T23:19:38.678Z,14.51
2022-10-25T23:22:06.552Z,14.55
2022-10-25T23:24:34.421Z,14.57
2022-10-25T23:27:02.233Z,14.56
2022-10-25T23:29:30.072Z,14.59
2022-10-25T23:31:57.893Z,14.48
2022-10-25T23:34:25.859Z,14.50
2022-10-25T23:36:55.063Z,14.49
2022-10-25T23:39:22.944Z,14.51
2022-10-25T23:41:51.884Z,14.47
2022-10-25T23:44:19.706Z,14.43
2022-10-25T23:46:47.581Z,14.27
2022-10-25T23:49:15.412Z,14.32
2022-10-25T23:51:43.383Z,14.37
2022-10-25T23:54:12.600Z,14.31
2022-10-25T23:56:40.458Z,14.27
2022-10-25T23:59:08.409Z,14.38
